• Join FlightAware (Why Join?)
  • Login
  • US Flag 
08:33PM EDT


 

Airport Tracker/Info


-or-


 

Live Flight TrackerFlight Track Log ✈ SWA1802 ✈ 04-Jun-2013 ✈ KMDW - KLAX

Flight Track Log - Related Links

Times and Time Zones

All times are in EDT time to prevent confusion due to time zone crossing. See the SWA1802 flight status page for this flight to view local times or setup timezone preferences in your user account.

Time Position Orientation Groundspeed Altitude Reporting Facility
EDT Latitude Longitude Course Direction KTS MPH feet Rate Location/Type
06:16PM 41.8167 -87.7833 283° West 237 273 2,800  Level Chicago TRACON
06:17PM 41.7928 -87.8456 243° Southwest 240 276 3,400 2,160 Climbing Chicago Center
06:18PM 41.7511 -87.9458 241° Southwest 279 321 7,400 3,480 Climbing Chicago Center
06:19PM 41.7500 -88.0481 269° West 278 320 10,700 2,220 Climbing Chicago Center
06:20PM 41.7689 -88.1475 284° West 287 330 12,000 660 Climbing Chicago Center
06:22PM 41.9245 -88.6132 283° West  Level FlightAware Approximate
06:22PM 41.7806 -88.2494 279° West 281 323 12,100  Level Chicago Center
06:23PM 41.7803 -88.3944 270° West 330 380 14,200 2,160 Climbing Chicago Center
06:24PM 41.7825 -88.5258 271° West 353 406 16,600 1,980 Climbing Chicago Center
06:25PM 41.7558 -88.6544 255° West 362 417 18,400 1,860 Climbing Chicago Center
06:26PM 41.7289 -88.7900 255° West 377 434 20,500 1,860 Climbing Chicago Center
06:27PM 41.6989 -88.9289 254° West 389 448 22,300 1,740 Climbing Chicago Center
06:28PM 41.6625 -89.0997 254° West 400 460 24,200 1,440 Climbing Chicago Center
06:29PM 41.6314 -89.2492 254° West 416 479 25,300 1,200 Climbing Chicago Center
06:30PM 41.5981 -89.4003 254° West 427 491 26,700 1,500 Climbing Chicago Center
06:31PM 41.5622 -89.5658 254° West 431 496 28,400 1,620 Climbing Chicago Center
06:32PM 41.5289 -89.7167 254° West 428 493 30,100 1,500 Climbing Chicago Center
06:33PM 41.4967 -89.8664 254° West 423 487 31,600 1,440 Climbing Chicago Center
06:34PM 41.4642 -90.0122 253° West 414 476 33,100 1,260 Climbing Chicago Center
06:35PM 41.4414 -90.1911 260° West 410 472 34,300 960 Climbing Chicago Center
06:36PM 41.4219 -90.3394 260° West 411 473 35,100 780 Climbing Chicago Center
06:37PM 41.3997 -90.4878 259° West 410 472 36,000 420 Climbing Chicago Center
06:38PM 41.3672 -90.6356 254° West 416 479 36,000  Level Chicago Center
06:39PM 41.3336 -90.7814 253° West 416 479 36,000  Level Chicago Center
06:40PM 41.2861 -90.9172 245° Southwest 409 471 36,000  Level Chicago Center
06:41PM 41.2311 -91.0808 246° West 407 468 36,000  Level Chicago Center
06:42PM 41.2117 -91.2261 260° West 401 461 36,000  Level Chicago Center
06:43PM 41.1906 -91.3711 259° West 401 461 36,000  Level Chicago Center
06:44PM 41.1700 -91.5147 259° West 399 459 36,000  Level Chicago Center
06:45PM 41.1489 -91.6600 259° West 400 460 36,000  Level Chicago Center
06:46PM 41.1244 -91.8333 259° West 400 460 36,000  Level Chicago Center
06:47PM 41.1033 -91.9758 259° West 399 459 36,000  Level Chicago Center
06:48PM 41.0822 -92.1225 259° West 405 466 36,000  Level Chicago Center
06:49PM 41.0608 -92.2667 259° West 404 465 36,000  Level Chicago Center
06:51PM 41.0392 -92.4108 259° West 403 464 36,000  Level Chicago Center
06:52PM 41.0119 -92.5858 258° West 407 468 36,000  Level Chicago Center
06:53PM 40.9900 -92.7306 259° West 407 468 36,000  Level Chicago Center
06:54PM 40.9683 -92.8756 259° West 408 470 36,000  Level Chicago Center
06:55PM 40.9453 -93.0206 258° West 408 470 36,000  Level Chicago Center
06:56PM 40.9181 -93.1919 258° West 403 464 36,000  Level Chicago Center
06:57PM 40.8969 -93.3319 259° West 397 457 36,000  Level Minneapolis Center
06:58PM 40.8739 -93.4758 258° West 401 461 36,000  Level Minneapolis Center
06:59PM 40.8508 -93.6181 258° West 401 461 36,000  Level Minneapolis Center
07:00PM 40.8225 -93.7894 258° West 402 463 36,000  Level Minneapolis Center
07:01PM 40.7989 -93.9342 258° West 405 466 36,000  Level Minneapolis Center
07:02PM 40.7747 -94.0772 257° West 403 464 36,000  Level Minneapolis Center
07:03PM 40.7511 -94.2222 258° West 407 468 36,000  Level Minneapolis Center
07:04PM 40.7247 -94.3689 257° West 410 472 36,000  Level Minneapolis Center
07:05PM 40.6944 -94.5431 257° West 411 473 36,000  Level Minneapolis Center
07:06PM 40.6697 -94.6878 257° West 407 468 36,000  Level Minneapolis Center
07:07PM 40.6444 -94.8358 257° West 411 473 36,000  Level Minneapolis Center
07:08PM 40.6181 -94.9828 257° West 413 475 36,000  Level Minneapolis Center
07:09PM 40.5936 -95.1283 258° West 409 471 36,000  Level Minneapolis Center
07:10PM 40.5678 -95.2744 257° West 409 471 36,000  Level Minneapolis Center
07:11PM 40.5375 -95.4478 257° West 406 467 36,000  Level Minneapolis Center
07:12PM 40.5111 -95.5906 256° West 403 464 36,000  Level Minneapolis Center
07:13PM 40.4864 -95.7342 257° West 401 461 36,000  Level Minneapolis Center
07:14PM 40.4600 -95.8769 256° West 401 461 36,000  Level Minneapolis Center
07:15PM 40.4336 -96.0175 256° West 398 458 36,000  Level Minneapolis Center
07:16PM 40.4081 -96.1600 257° West 398 458 36,000  Level Minneapolis Center
07:17PM 40.3817 -96.3025 256° West 400 460 36,000  Level Minneapolis Center
07:19PM 40.3483 -96.4742 256° West 403 464 36,000  Level Minneapolis Center
07:20PM 40.3211 -96.6183 256° West 405 466 36,000  Level Minneapolis Center
07:21PM 40.2942 -96.7628 256° West 408 470 36,000  Level Minneapolis Center
07:22PM 40.2667 -96.9064 256° West 407 468 36,000  Level Minneapolis Center
07:23PM 40.2389 -97.0503 256° West 406 467 36,000  Level Minneapolis Center
07:24PM 40.2044 -97.2228 255° West 408 470 36,000  Level Minneapolis Center
07:25PM 40.1808 -97.3469 256° West 407 468 36,000  Level Minneapolis Center
07:26PM 40.1464 -97.5175 255° West 405 466 36,000  Level Minneapolis Center
07:27PM 40.1183 -97.6581 255° West 401 461 36,000  Level Minneapolis Center
07:28PM 40.0897 -97.7997 255° West 401 461 36,000  Level Minneapolis Center
07:29PM 40.0611 -97.9406 255° West 400 460 36,000  Level Minneapolis Center
07:30PM 40.0325 -98.0822 255° West 402 463 36,000  Level Minneapolis Center
07:31PM 40.0036 -98.2225 255° West 401 461 36,000  Level Minneapolis Center
07:32PM 39.9750 -98.3639 255° West 401 461 36,000  Level Minneapolis Center
07:33PM 39.9397 -98.5322 255° West 401 461 36,000  Level Minneapolis Center
07:34PM 39.9092 -98.6731 254° West 402 463 36,000  Level Minneapolis Center
07:35PM 39.8803 -98.8139 255° West 402 463 36,000  Level Minneapolis Center
07:36PM 39.8511 -98.9564 255° West 404 465 36,000  Level Minneapolis Center
07:37PM 39.8208 -99.0950 254° West 401 461 36,000  Level Minneapolis Center
07:38PM 39.7914 -99.2325 254° West 396 456 36,000  Level Minneapolis Center
07:39PM 39.7606 -99.3717 254° West 398 458 36,000 -60 Level Minneapolis Center
07:40PM 39.7303 -99.5106 254° West 398 458 35,900 60 Descending Minneapolis Center
07:41PM 39.7003 -99.6731 257° West 390 449 36,200 480 Climbing Minneapolis Center
07:42PM 39.7211 -99.8161 281° West 397 457 37,000 360 Climbing Minneapolis Center
07:43PM 39.7464 -99.9564 283° West 399 459 37,000  Level Minneapolis Center
07:44PM 39.7728 -100.0967 284° West 398 458 37,000  Level Minneapolis Center
07:45PM 39.7992 -100.2369 284° West 398 458 37,000  Level Minneapolis Center
07:47PM 39.8297 -100.4006 284° West 398 458 37,000  Level Denver Center
07:48PM 39.8586 -100.5561 284° West 396 456 37,000  Level Denver Center
07:49PM 39.8836 -100.6903 284° West 398 458 37,000  Level Denver Center
07:50PM 39.9128 -100.8447 284° West 394 453 37,000  Level Denver Center
07:51PM 39.9372 -100.9767 284° West 392 451 37,000  Level Denver Center
07:52PM 39.9664 -101.1281 284° West 386 444 37,000  Level Denver Center
07:53PM 39.9950 -101.2778 284° West 383 441 37,000  Level Denver Center
07:54PM 40.0097 -101.4519 276° West 381 438 37,000  Level Denver Center
07:55PM 40.0231 -101.5836 278° West 381 438 37,000  Level Denver Center
07:56PM 40.0500 -101.7344 283° West 382 440 37,000 -540 Level Denver Center
07:57PM 40.0792 -101.8403 290° West 387 445 36,000 -540 Descending Denver Center
07:58PM 40.1231 -102.0097 289° West 386 444 36,000  Level Denver Center
07:59PM 40.1514 -102.1419 286° West 393 452 36,000  Level Denver Center
08:00PM 40.1825 -102.2964 285° West 394 453 36,000  Level Denver Center
08:01PM 40.2108 -102.4289 286° West 393 452 36,000  Level Denver Center
08:03PM 40.2425 -102.5853 285° West 398 458 36,000  Level Denver Center
08:04PM 40.2733 -102.7372 285° West 402 463 36,000  Level Denver Center
08:05PM 40.3064 -102.9058 284° West 400 460 36,000  Level Denver Center
08:06PM 40.3356 -103.0431 286° West 394 453 36,000  Level Denver Center
08:07PM 40.3586 -103.1539 285° West 395 455 36,000  Level Denver Center
08:08PM 40.3922 -103.3186 285° West 393 452 36,000  Level Denver Center
08:09PM 40.3875 -103.4592 268° West 386 444 36,000  Level Denver Center
08:10PM 40.3389 -103.5872 244° Southwest 389 448 36,000  Level Denver Center
08:11PM 40.2778 -103.7403 242° Southwest 399 459 36,000  Level Denver Center
08:12PM 40.2269 -103.8639 242° Southwest 383 441 36,000  Level Denver Center
08:13PM 40.1767 -103.9889 242° Southwest 386 444 36,000  Level Denver Center
08:14PM 40.1167 -104.1367 242° Southwest 385 443 36,000  Level Denver Center
08:15PM 40.0753 -104.2356 241° Southwest 389 448 36,000 420 Level Denver Center
08:16PM 40.0144 -104.3828 242° Southwest 387 445 37,000 840 Climbing Denver Center
08:18PM 39.9194 -104.5339 231° Southwest 391 450 38,000 480 Climbing Denver Center
08:19PM 39.8411 -104.6317 224° Southwest 389 448 38,000  Level Denver Center
08:20PM 39.7700 -104.7364 229° Southwest 386 444 38,000  Level Denver Center
08:21PM 39.7219 -104.8622 244° Southwest 395 455 38,000  Level Denver Center
08:22PM 39.6592 -105.0086 241° Southwest 398 458 38,000  Level Denver Center
08:23PM 39.6067 -105.1364 242° Southwest 405 466 38,000  Level Denver Center
08:24PM 39.5536 -105.2608 241° Southwest 397 457 38,000  Level Denver Center
08:25PM 39.5003 -105.3881 242° Southwest 404 465 38,000  Level Denver Center
08:26PM 39.4478 -105.5139 242° Southwest 394 453 38,000  Level Denver Center
08:27PM 39.3961 -105.6372 242° Southwest 385 443 38,000  Level Denver Center
08:28PM 39.3331 -105.7892 242° Southwest 397 457 38,000  Level Denver Center
08:29PM 39.2792 -105.9150 241° Southwest 402 463 38,000  Level Denver Center
08:30PM 39.2258 -106.0425 242° Southwest 405 466 38,000  Level Denver Center
08:31PM 39.1708 -106.1703 241° Southwest 408 470 38,000  Level Denver Center
08:32PM 39.1083 -106.3161 241° Southwest 414 476 38,000  Level Denver Center
08:33PM 39.0556 -106.4389 241° Southwest 410 472 38,000  Level Denver Center
08:34PM 39.0017 -106.5633 241° Southwest 413 475 38,000  Level Denver Center
08:35PM 38.9364 -106.7108 240° Southwest 421 484 38,000  Level Denver Center
08:36PM 38.8822 -106.8342 241° Southwest 417 480 38,000  Level Denver Center
08:37PM 38.8269 -106.9614 241° Southwest 416 479 38,000  Level Denver Center
08:38PM 38.7703 -107.0897 241° Southwest 413 475 38,000  Level Denver Center
08:39PM 38.7103 -107.2261 241° Southwest 416 479 38,000  Level Denver Center
08:40PM 38.6472 -107.3692 241° Southwest 414 476 38,000  Level Denver Center
08:41PM 38.5914 -107.4936 240° Southwest 417 480 38,000  Level Denver Center
08:42PM 38.5267 -107.6383 240° Southwest 420 483 38,000  Level Denver Center
08:43PM 38.4711 -107.7619 240° Southwest 420 483 38,000  Level Denver Center
08:44PM 38.4150 -107.8869 240° Southwest 422 486 38,000  Level Denver Center
08:45PM 38.3217 -108.0328 231° Southwest 417 480 38,000  Level Denver Center
08:47PM 38.2042 -108.1156 209° Southwest 428 493 38,000  Level Denver Center
08:48PM 38.1025 -108.1817 207° Southwest 427 491 38,000  Level Denver Center
08:49PM 37.9897 -108.2361 201° Southwest 427 491 38,000  Level Denver Center
08:50PM 37.8781 -108.2814 198° South 437 503 38,000  Level Denver Center
08:51PM 37.7836 -108.3906 222° Southwest 428 493 38,000  Level Denver Center
08:52PM 37.7328 -108.5172 243° Southwest 421 484 38,000  Level Denver Center
08:53PM 37.6758 -108.6647 244° Southwest 419 482 38,000  Level Denver Center
08:54PM 37.6275 -108.7864 243° Southwest 412 474 38,000  Level Denver Center
08:55PM 37.5708 -108.9303 244° Southwest 406 467 38,000  Level Denver Center
08:56PM 37.5214 -109.0556 244° Southwest 414 476 38,000  Level Denver Center
08:57PM 37.4564 -109.2214 244° Southwest 415 478 38,000  Level Denver Center
08:58PM 37.4078 -109.3444 244° Southwest 413 475 38,000  Level Denver Center
08:59PM 37.3500 -109.4903 244° Southwest 417 480 38,000  Level Denver Center
09:00PM 37.3000 -109.6128 243° Southwest 415 478 38,000  Level Denver Center
09:01PM 37.2506 -109.7356 243° Southwest 413 475 38,000  Level Denver Center
09:02PM 37.1925 -109.8803 243° Southwest 416 479 38,000  Level Denver Center
09:03PM 37.1428 -110.0028 243° Southwest 413 475 38,000  Level Denver Center
09:04PM 37.0711 -110.1367 236° Southwest 425 489 38,000  Level Denver Center
09:05PM 36.9781 -110.2536 225° Southwest 415 478 38,000  Level Denver Center
09:06PM 36.8972 -110.3564 225° Southwest 416 479 38,000  Level Denver Center
09:07PM 36.8169 -110.4583 225° Southwest 412 474 38,000  Level Denver Center
09:08PM 36.7364 -110.5594 225° Southwest 411 473 38,000  Level Denver Center
09:10PM 36.6522 -110.6906 231° Southwest 408 470 38,000  Level Denver Center
09:11PM 36.6067 -110.8197 246° West 407 468 38,000  Level Denver Center
09:12PM 36.5628 -110.9506 247° West 409 471 38,000  Level Denver Center
09:13PM 36.5067 -111.1081 246° West 413 475 38,000  Level Denver Center
09:14PM 36.4614 -111.2383 247° West 412 474 38,000  Level Denver Center
09:15PM 36.4164 -111.3683 247° West 411 473 38,000  Level Denver Center
09:16PM 36.3700 -111.4981 246° West 410 472 38,000  Level Denver Center
09:17PM 36.3236 -111.6292 246° West 412 474 38,000  Level Denver Center
09:18PM 36.2686 -111.7861 247° West 414 476 38,000  Level Denver Center
09:19PM 36.2225 -111.9167 246° West 413 475 38,000  Level Denver Center
09:20PM 36.1842 -112.0217 246° West 414 476 38,000  Level Denver Center
09:21PM 36.1275 -112.1781 246° West 415 478 38,000  Level Denver Center
09:22PM 36.0803 -112.3094 246° West 417 480 38,000  Level Denver Center
09:23PM 36.0236 -112.4653 246° West 413 475 38,000  Level Los Angeles Center
09:24PM 35.9769 -112.5950 246° West 414 476 38,000  Level Los Angeles Center
09:25PM 35.9247 -112.7342 245° Southwest 413 475 38,000  Level Los Angeles Center
09:26PM 35.8786 -112.8622 246° West 414 476 38,000  Level Los Angeles Center
09:27PM 35.8314 -112.9900 246° West 414 476 38,000  Level Los Angeles Center
09:28PM 35.7842 -113.1169 245° Southwest 413 475 38,000  Level Los Angeles Center
09:29PM 35.7283 -113.2681 246° West 410 472 38,000  Level Los Angeles Center
09:30PM 35.6814 -113.3953 246° West 412 474 38,000  Level Los Angeles Center
09:31PM 35.6336 -113.5214 245° Southwest 412 474 38,000  Level Los Angeles Center
09:32PM 35.5853 -113.6461 245° Southwest 411 473 38,000  Level Los Angeles Center
09:34PM 35.5333 -113.7689 243° Southwest 409 471 38,000  Level Los Angeles Center
09:35PM 35.4825 -113.8933 243° Southwest 412 474 38,000  Level Los Angeles Center
09:36PM 35.4289 -114.0264 244° Southwest 415 478 38,000  Level Los Angeles Center
09:37PM 35.3664 -114.1778 243° Southwest 415 478 38,000  Level Los Angeles Center
09:38PM 35.3153 -114.3047 244° Southwest 416 479 38,000  Level Los Angeles Center
09:39PM 35.2636 -114.4294 243° Southwest 412 474 38,000  Level Los Angeles Center
09:40PM 35.2114 -114.5536 243° Southwest 410 472 38,000  Level Los Angeles Center
09:41PM 35.1694 -114.6533 243° Southwest 411 473 38,000  Level Los Angeles Center
09:42PM 35.1069 -114.8028 243° Southwest 410 472 38,000  Level Los Angeles Center
09:43PM 35.0553 -114.9264 243° Southwest 409 471 38,000  Level Los Angeles Center
09:44PM 35.0033 -115.0486 243° Southwest 406 467 38,000  Level Los Angeles Center
09:45PM 34.9514 -115.1714 243° Southwest 406 467 38,000  Level Los Angeles Center
09:46PM 34.8906 -115.3169 243° Southwest 402 463 38,000  Level Los Angeles Center
09:47PM 34.8389 -115.4386 243° Southwest 405 466 38,000  Level Los Angeles Center
09:48PM 34.7864 -115.5606 242° Southwest 407 468 38,000  Level Los Angeles Center
09:49PM 34.7386 -115.6722 243° Southwest 406 467 38,000  Level Los Angeles Center
09:50PM 34.6864 -115.7947 243° Southwest 407 468 38,000  Level Los Angeles Center
09:51PM 34.6342 -115.9147 242° Southwest 403 464 38,000  Level Los Angeles Center
09:52PM 34.5719 -116.0586 242° Southwest 401 461 38,000 -1,140 Level Los Angeles Center
09:53PM 34.5108 -116.1978 242° Southwest 391 450 35,700 -2,520 Descending Los Angeles Center
09:54PM 34.4600 -116.3147 242° Southwest 392 451 32,900 -2,460 Descending Los Angeles Center
09:55PM 34.4042 -116.4408 242° Southwest 421 484 30,700 -2,100 Descending Los Angeles Center
09:56PM 34.3486 -116.5653 242° Southwest 421 484 28,600 -1,860 Descending Los Angeles Center
09:57PM 34.3069 -116.6614 242° Southwest 408 470 26,900 -2,100 Descending Los Angeles Center
09:58PM 34.2444 -116.8014 242° Southwest 395 455 24,400 -2,100 Descending Los Angeles Center
10:00PM 34.1931 -116.9164 242° Southwest 389 448 22,300 -1,980 Descending Los Angeles Center
10:01PM 34.1347 -117.0481 242° Southwest 373 429 20,000 -2,220 Descending Los Angeles Center
10:01PM 34.1000 -117.1167 239° Southwest 363 418 19,000 -2,220 Descending Southern California TRACON
10:02PM 34.0500 -117.2333 243° Southwest 368 423 16,600 -2,280 Descending Southern California TRACON
10:03PM 34.0333 -117.3500 260° West 362 417 14,300 -2,220 Descending Southern California TRACON
10:04PM 34.0333 -117.4667 270° West 354 407 12,200 -1,800 Descending Southern California TRACON
10:05PM 34.0333 -117.5833 270° West 336 387 10,700 -1,140 Descending Southern California TRACON
10:06PM 34.0167 -117.6833 259° West 294 338 10,000 -960 Descending Southern California TRACON
10:07PM 34.0167 -117.7833 270° West 289 333 8,900 -1,320 Descending Southern California TRACON
10:08PM 34.0000 -117.8667 256° West 286 329 7,600 -1,140 Descending Southern California TRACON
10:09PM 34.0000 -117.9667 270° West 273 314 6,700 -1,020 Descending Southern California TRACON
10:10PM 33.9833 -118.0333 253° West 261 300 5,700 -1,080 Descending Southern California TRACON
10:11PM 33.9833 -118.1167 270° West 236 272 4,700 -1,080 Descending Southern California TRACON
10:12PM 33.9744 -118.1817 261° West 236 272 3,700 -1,020 Descending Los Angeles Center
10:13PM 33.9686 -118.2414 263° West 194 223 2,800 -900 Descending Los Angeles Center
10:14PM 33.9639 -118.2958 264° West 175 201 1,900 -840 Descending Los Angeles Center
10:15PM 33.9589 -118.3431 263° West 159 183 1,100 -780 Descending Los Angeles Center
10:16PM 33.9544 -118.3894 263° West 148 170 400 -480 Descending Los Angeles Center
10:17PM 33.9486 -118.4347 261° West 146 168 200 -240 Descending Los Angeles Center
10:19PM 33.9425 -118.4081 259° West  Level Estimated